createdAt,value
2023-03-21T00:01:32.077Z,10.07
2023-03-21T00:03:58.944Z,10.83
2023-03-21T00:06:25.899Z,10.30
2023-03-21T00:08:52.501Z,8.53
2023-03-21T00:11:19.417Z,13.53
2023-03-21T00:13:46.089Z,10.20
2023-03-21T00:16:20.057Z,6.97
2023-03-21T00:18:54.050Z,8.60
2023-03-21T00:24:08.826Z,12.63
2023-03-21T00:26:36.072Z,9.27
2023-03-21T00:29:02.691Z,8.63
2023-03-21T00:31:29.548Z,9.73
2023-03-21T00:33:56.923Z,9.37
2023-03-21T00:36:26.195Z,9.53
2023-03-21T00:38:53.316Z,11.80
2023-03-21T00:41:35.111Z,8.27
2023-03-21T00:44:07.000Z,11.07
2023-03-21T00:46:46.940Z,10.30
2023-03-21T00:49:16.355Z,11.60
2023-03-21T00:51:44.063Z,8.67
2023-03-21T00:54:12.228Z,11.50
2023-03-21T00:56:39.012Z,13.60
2023-03-21T00:59:05.729Z,9.77
2023-03-21T01:01:32.462Z,10.70
2023-03-21T01:04:13.682Z,10.57
2023-03-21T01:06:42.239Z,14.17
2023-03-21T01:09:17.129Z,8.97
2023-03-21T01:11:44.805Z,12.10
2023-03-21T01:14:23.597Z,7.90
2023-03-21T01:16:54.204Z,7.27
2023-03-21T01:19:38.014Z,14.43
2023-03-21T01:22:11.778Z,9.20
2023-03-21T01:24:50.366Z,8.07
2023-03-21T01:27:19.509Z,12.87
2023-03-21T01:29:46.088Z,9.57
2023-03-21T01:32:12.705Z,8.73
2023-03-21T01:34:39.310Z,9.00
2023-03-21T01:37:06.396Z,11.17
2023-03-21T01:39:35.067Z,11.03
2023-03-21T01:42:01.725Z,11.30
2023-03-21T01:44:28.722Z,10.47
2023-03-21T01:47:12.246Z,9.80
2023-03-21T01:49:46.406Z,13.77
2023-03-21T01:52:29.768Z,8.77
2023-03-21T01:55:03.925Z,8.07
2023-03-21T01:57:42.356Z,9.30
2023-03-21T02:00:15.567Z,9.53
2023-03-21T02:02:52.551Z,11.57
2023-03-21T02:05:24.740Z,10.47
2023-03-21T02:07:52.929Z,11.77
2023-03-21T02:10:19.639Z,13.93
2023-03-21T02:12:46.498Z,8.93
2023-03-21T02:15:13.483Z,10.43
2023-03-21T02:17:45.340Z,8.53
2023-03-21T02:20:42.953Z,10.90
2023-03-21T02:23:21.670Z,12.23
2023-03-21T02:26:23.433Z,8.57
2023-03-21T02:29:10.013Z,10.73
2023-03-21T02:31:43.215Z,12.33
2023-03-21T02:34:42.364Z,12.47
2023-03-21T02:37:36.772Z,11.10
2023-03-21T02:40:12.698Z,12.63
2023-03-21T02:43:16.991Z,12.73
2023-03-21T02:45:55.351Z,10.40
2023-03-21T02:48:31.110Z,12.03
2023-03-21T02:51:01.178Z,9.43
2023-03-21T02:53:32.366Z,11.50
2023-03-21T02:55:59.896Z,11.87
2023-03-21T02:58:28.340Z,13.00
2023-03-21T03:00:56.292Z,9.70
2023-03-21T03:03:33.404Z,13.23
2023-03-21T03:06:03.650Z,12.33
2023-03-21T03:09:01.534Z,12.10
2023-03-21T03:11:34.608Z,12.00
2023-03-21T03:14:50.007Z,10.77
2023-03-21T03:17:23.399Z,8.90
2023-03-21T03:20:16.975Z,10.70
2023-03-21T03:23:10.619Z,10.57
2023-03-21T03:25:47.929Z,8.67
2023-03-21T03:28:18.251Z,11.97
2023-03-21T03:31:00.903Z,9.90
2023-03-21T03:33:33.207Z,9.20
2023-03-21T03:36:05.445Z,10.10
2023-03-21T03:38:34.531Z,12.03
2023-03-21T03:41:11.525Z,10.50
2023-03-21T03:43:45.110Z,11.30
2023-03-21T03:46:18.438Z,10.17
2023-03-21T03:48:50.641Z,8.43
2023-03-21T03:51:22.891Z,8.20
2023-03-21T03:53:53.836Z,13.20
2023-03-21T03:56:21.012Z,9.47
2023-03-21T03:58:47.673Z,10.70
2023-03-21T04:01:14.405Z,10.63
2023-03-21T04:03:50.275Z,9.27
2023-03-21T04:06:19.436Z,10.90
2023-03-21T04:08:46.044Z,14.03
2023-03-21T04:11:16.370Z,12.47
2023-03-21T04:13:43.039Z,12.10
2023-03-21T04:16:11.706Z,10.60
2023-03-21T04:18:39.356Z,12.37
2023-03-21T04:21:10.873Z,11.93
2023-03-21T04:23:37.802Z,9.40
2023-03-21T04:26:05.237Z,12.43
2023-03-21T04:28:33.681Z,11.63
2023-03-21T04:31:05.261Z,10.93
2023-03-21T04:33:42.764Z,10.83
2023-03-21T04:36:09.920Z,13.73
2023-03-21T04:38:36.742Z,8.40
2023-03-21T04:41:03.996Z,11.10
2023-03-21T04:43:31.057Z,9.40
2023-03-21T04:45:57.968Z,10.00
2023-03-21T04:48:24.793Z,8.40
2023-03-21T04:50:51.968Z,9.33
2023-03-21T04:53:18.851Z,9.90
2023-03-21T04:55:45.762Z,10.90
2023-03-21T04:58:12.863Z,12.17
2023-03-21T05:00:40.292Z,10.93
2023-03-21T05:03:09.222Z,9.70
2023-03-21T05:05:37.662Z,10.17
2023-03-21T05:08:05.752Z,8.57
2023-03-21T05:10:33.003Z,10.70
2023-03-21T05:12:59.601Z,11.30
2023-03-21T05:15:26.158Z,10.43
2023-03-21T05:17:52.751Z,12.23
2023-03-21T05:20:19.889Z,10.87
2023-03-21T05:22:50.209Z,9.77
2023-03-21T05:25:18.252Z,9.47
2023-03-21T05:27:54.238Z,10.20
2023-03-21T05:30:21.072Z,8.67
2023-03-21T05:32:47.824Z,11.87
2023-03-21T05:35:14.526Z,8.83
2023-03-21T05:37:41.068Z,10.57
2023-03-21T05:40:11.297Z,9.73
2023-03-21T05:42:38.018Z,12.23
2023-03-21T05:45:05.156Z,11.17
2023-03-21T05:47:31.937Z,11.83
2023-03-21T05:49:58.580Z,10.17
2023-03-21T05:52:25.407Z,10.73
2023-03-21T05:54:52.447Z,11.93
2023-03-21T05:57:19.321Z,11.43
2023-03-21T05:59:46.053Z,11.37
2023-03-21T06:02:13.017Z,11.97
2023-03-21T06:04:39.765Z,11.57
2023-03-21T06:07:06.401Z,9.17
2023-03-21T06:09:34.096Z,10.13
2023-03-21T06:12:01.278Z,9.60
2023-03-21T06:14:28.130Z,10.47
2023-03-21T06:16:54.762Z,10.60
2023-03-21T06:19:21.958Z,11.00
2023-03-21T06:21:49.240Z,10.27
2023-03-21T06:24:15.944Z,6.70
2023-03-21T06:26:43.001Z,7.97
2023-03-21T06:29:09.904Z,10.50
2023-03-21T06:31:36.801Z,12.87
2023-03-21T06:34:03.688Z,9.10
2023-03-21T06:36:30.380Z,10.30
2023-03-21T06:38:56.961Z,11.63
2023-03-21T06:41:23.821Z,9.47
2023-03-21T06:43:50.455Z,11.97
2023-03-21T06:46:17.184Z,16.50
2023-03-21T06:48:44.918Z,10.43
2023-03-21T06:51:15.563Z,9.53
2023-03-21T06:53:42.309Z,10.67
2023-03-21T06:56:10.931Z,9.80
2023-03-21T06:58:38.382Z,11.77
2023-03-21T07:01:05.684Z,10.53
2023-03-21T07:03:37.952Z,11.37
2023-03-21T07:06:07.583Z,9.80
2023-03-21T07:08:34.581Z,8.57
2023-03-21T07:11:01.268Z,13.37
2023-03-21T07:13:27.962Z,9.50
2023-03-21T07:15:54.645Z,8.40
2023-03-21T07:18:21.626Z,10.13
2023-03-21T07:20:51.549Z,11.20
2023-03-21T07:23:22.790Z,10.67
2023-03-21T07:25:50.529Z,8.80
2023-03-21T07:28:17.563Z,10.10
2023-03-21T07:30:45.030Z,11.27
2023-03-21T07:33:12.536Z,12.90
2023-03-21T07:35:39.576Z,15.10
2023-03-21T07:38:06.547Z,8.83
2023-03-21T07:40:33.472Z,10.50
2023-03-21T07:43:00.371Z,10.67
2023-03-21T07:45:27.504Z,10.43
2023-03-21T07:47:54.659Z,9.87
2023-03-21T07:50:21.655Z,10.67
2023-03-21T07:52:48.463Z,11.80
2023-03-21T07:55:17.357Z,8.53
2023-03-21T07:57:44.149Z,7.63
2023-03-21T08:00:12.827Z,7.47
2023-03-21T08:02:40.218Z,7.77
2023-03-21T08:05:07.055Z,8.43
2023-03-21T08:07:33.688Z,9.40
2023-03-21T08:10:00.517Z,7.70
2023-03-21T08:12:27.078Z,8.13
2023-03-21T08:14:53.724Z,8.50
2023-03-21T08:17:20.513Z,5.87
2023-03-21T08:19:47.306Z,9.47
2023-03-21T08:22:14.012Z,8.00
2023-03-21T08:24:40.630Z,10.10
2023-03-21T08:27:07.264Z,9.10
2023-03-21T08:29:33.966Z,9.73
2023-03-21T08:32:00.650Z,8.83
2023-03-21T08:34:27.512Z,7.43
2023-03-21T08:36:54.719Z,5.60
2023-03-21T08:39:22.031Z,11.77
2023-03-21T08:41:48.735Z,9.73
2023-03-21T08:44:17.048Z,8.20
2023-03-21T08:46:43.701Z,9.43
2023-03-21T08:49:10.671Z,6.00
2023-03-21T08:51:37.798Z,13.07
2023-03-21T08:54:04.759Z,13.40
2023-03-21T08:56:31.386Z,9.20
2023-03-21T08:58:59.131Z,14.30
2023-03-21T09:01:26.350Z,9.27
2023-03-21T09:03:53.021Z,9.33
2023-03-21T09:06:19.825Z,8.57
2023-03-21T09:08:46.550Z,11.57
2023-03-21T09:11:13.283Z,10.33
2023-03-21T09:13:39.926Z,8.63
2023-03-21T09:16:07.055Z,10.27
2023-03-21T09:18:47.502Z,9.70
2023-03-21T09:21:15.676Z,11.00
2023-03-21T09:23:42.634Z,11.40
2023-03-21T09:26:09.860Z,12.37
2023-03-21T09:28:39.139Z,9.77
2023-03-21T09:31:06.689Z,10.03
2023-03-21T09:33:35.415Z,10.00
2023-03-21T09:36:02.294Z,13.40
2023-03-21T09:38:31.292Z,9.47
2023-03-21T09:41:21.459Z,10.43
2023-03-21T09:43:56.086Z,10.17
2023-03-21T09:46:46.436Z,11.70
2023-03-21T09:49:25.679Z,12.17
2023-03-21T09:51:55.068Z,13.17
2023-03-21T09:54:25.108Z,9.70
2023-03-21T09:56:54.830Z,11.57
2023-03-21T09:59:38.309Z,10.37
2023-03-21T10:02:36.097Z,10.23
2023-03-21T10:05:12.098Z,12.17
2023-03-21T10:07:44.717Z,9.40
2023-03-21T10:10:22.791Z,12.23
2023-03-21T10:12:50.655Z,13.10
2023-03-21T10:15:22.647Z,13.13
2023-03-21T10:17:55.446Z,11.20
2023-03-21T10:20:23.219Z,14.43
2023-03-21T10:22:52.218Z,12.63
2023-03-21T10:25:22.059Z,11.93
2023-03-21T10:27:50.785Z,12.70
2023-03-21T10:30:42.378Z,9.27
2023-03-21T10:33:14.673Z,10.30
2023-03-21T10:35:45.666Z,11.17
2023-03-21T10:38:17.326Z,9.57
2023-03-21T10:40:44.316Z,13.20
2023-03-21T10:43:38.089Z,9.40
2023-03-21T10:46:24.163Z,11.10
2023-03-21T10:48:52.951Z,10.67
2023-03-21T10:51:22.350Z,10.63
2023-03-21T10:53:55.528Z,10.30
2023-03-21T10:56:31.224Z,10.70
2023-03-21T10:58:59.989Z,8.67
2023-03-21T11:01:30.706Z,11.57
2023-03-21T11:04:00.928Z,8.57
2023-03-21T11:06:39.453Z,11.70
2023-03-21T11:09:15.511Z,11.37
2023-03-21T11:11:50.889Z,11.33
2023-03-21T11:14:33.190Z,11.57
2023-03-21T11:16:59.948Z,10.60
2023-03-21T11:19:32.862Z,10.07
2023-03-21T11:22:04.464Z,8.73
2023-03-21T11:24:32.311Z,9.87
2023-03-21T11:26:59.207Z,9.13
2023-03-21T11:29:41.280Z,8.97
2023-03-21T11:32:25.376Z,10.37
2023-03-21T11:34:55.167Z,9.07
2023-03-21T11:37:28.347Z,10.80
2023-03-21T11:40:06.877Z,9.50
2023-03-21T11:42:41.512Z,9.03
2023-03-21T11:45:15.463Z,13.73
2023-03-21T11:47:42.478Z,6.87
2023-03-21T11:50:34.154Z,7.43
2023-03-21T11:53:46.780Z,8.83
2023-03-21T11:56:23.673Z,9.30
2023-03-21T11:59:02.445Z,8.50
2023-03-21T12:01:42.492Z,6.60
2023-03-21T12:04:31.905Z,8.33
2023-03-21T12:07:26.541Z,7.67
2023-03-21T12:10:27.416Z,8.77
2023-03-21T12:13:15.949Z,8.60
2023-03-21T12:15:53.792Z,10.33
2023-03-21T12:18:46.838Z,24.87
2023-03-21T12:21:36.329Z,45.63
2023-03-21T12:24:03.076Z,29.23
2023-03-21T12:26:40.842Z,12.60
2023-03-21T12:29:20.032Z,16.77
2023-03-21T12:31:52.708Z,7.43
2023-03-21T12:34:47.473Z,6.77
2023-03-21T12:37:37.288Z,9.93
2023-03-21T12:40:41.135Z,10.83
2023-03-21T12:43:20.834Z,8.73
2023-03-21T12:45:49.507Z,8.00
2023-03-21T12:48:37.294Z,8.77
2023-03-21T12:51:05.658Z,5.13
2023-03-21T12:53:44.373Z,6.60
2023-03-21T12:56:15.793Z,7.73
2023-03-21T12:59:07.275Z,7.00
2023-03-21T13:01:35.954Z,5.47
2023-03-21T13:04:08.757Z,6.80
2023-03-21T13:06:36.734Z,6.90
2023-03-21T13:09:09.807Z,5.47
2023-03-21T13:11:36.591Z,6.67
2023-03-21T13:14:06.723Z,6.47
2023-03-21T13:16:38.222Z,8.40
2023-03-21T13:19:32.822Z,6.80
2023-03-21T13:22:25.092Z,4.97
2023-03-21T13:24:59.141Z,6.90
2023-03-21T13:27:25.973Z,9.60
2023-03-21T13:29:54.946Z,5.30
2023-03-21T13:32:29.950Z,5.77
2023-03-21T13:35:12.748Z,5.97
2023-03-21T13:37:41.644Z,5.20
2023-03-21T13:40:27.272Z,6.10
2023-03-21T13:42:59.870Z,6.30
2023-03-21T13:45:47.399Z,8.03
2023-03-21T13:48:46.553Z,7.70
2023-03-21T13:51:20.395Z,6.00
2023-03-21T13:54:00.848Z,7.10
2023-03-21T13:56:28.063Z,5.43
2023-03-21T13:58:59.002Z,6.97
2023-03-21T14:02:13.608Z,6.37
2023-03-21T14:05:06.072Z,6.03
2023-03-21T14:07:42.174Z,5.57
2023-03-21T14:10:18.607Z,5.63
2023-03-21T14:12:45.544Z,5.50
2023-03-21T14:15:20.960Z,7.13
2023-03-21T14:18:00.677Z,9.10
2023-03-21T14:20:30.782Z,6.37
2023-03-21T14:22:57.635Z,5.30
2023-03-21T14:25:37.060Z,7.87
2023-03-21T14:28:14.700Z,5.10
2023-03-21T14:30:43.168Z,8.87
2023-03-21T14:33:23.159Z,6.60
2023-03-21T14:35:50.377Z,4.60
2023-03-21T14:38:22.643Z,6.80
2023-03-21T14:40:52.418Z,6.00
2023-03-21T14:43:20.917Z,6.43
2023-03-21T14:45:48.708Z,4.70
2023-03-21T14:48:17.076Z,6.53
2023-03-21T14:50:54.455Z,6.00
2023-03-21T14:53:37.027Z,4.87
2023-03-21T14:56:08.187Z,4.20
2023-03-21T14:58:38.643Z,7.20
2023-03-21T15:01:08.761Z,7.53
2023-03-21T15:03:37.594Z,6.50
2023-03-21T15:06:04.746Z,4.47
2023-03-21T15:08:31.566Z,5.47
2023-03-21T15:11:07.358Z,5.60
2023-03-21T15:13:50.144Z,4.60
2023-03-21T15:16:17.694Z,6.60
2023-03-21T15:18:45.486Z,4.53
2023-03-21T15:21:19.951Z,4.87
2023-03-21T15:23:48.507Z,7.27
2023-03-21T15:26:17.076Z,6.17
2023-03-21T15:28:46.444Z,5.53
2023-03-21T15:31:24.198Z,7.90
2023-03-21T15:33:53.261Z,8.97
2023-03-21T15:36:26.395Z,5.43
2023-03-21T15:38:54.272Z,4.93
2023-03-21T15:41:20.850Z,7.40
2023-03-21T15:44:08.912Z,5.67
2023-03-21T15:46:48.691Z,6.27
2023-03-21T15:49:15.679Z,6.37
2023-03-21T15:51:45.798Z,6.30
2023-03-21T15:54:16.436Z,4.10
2023-03-21T15:56:46.125Z,6.63
2023-03-21T15:59:19.228Z,5.63
2023-03-21T16:01:48.182Z,6.60
2023-03-21T16:04:15.220Z,7.53
2023-03-21T16:07:03.159Z,5.90
2023-03-21T16:09:44.974Z,5.60
2023-03-21T16:12:14.169Z,7.83
2023-03-21T16:14:42.733Z,6.50
2023-03-21T16:17:37.589Z,7.10
2023-03-21T16:20:13.952Z,6.63
2023-03-21T16:22:40.552Z,5.43
2023-03-21T16:25:07.520Z,6.43
2023-03-21T16:27:36.363Z,5.93
2023-03-21T16:30:03.480Z,6.93
2023-03-21T16:32:30.333Z,5.23
2023-03-21T16:34:57.316Z,7.10
2023-03-21T16:37:23.920Z,5.97
2023-03-21T16:39:50.568Z,5.70
2023-03-21T16:42:17.201Z,6.27
2023-03-21T16:44:43.832Z,8.13
2023-03-21T16:47:18.984Z,6.80
2023-03-21T16:49:45.844Z,7.40
2023-03-21T16:52:13.677Z,11.97
2023-03-21T16:54:41.514Z,12.13
2023-03-21T16:57:09.827Z,10.90
2023-03-21T16:59:38.572Z,9.50
2023-03-21T17:02:16.701Z,8.43
2023-03-21T17:04:44.888Z,7.73
2023-03-21T17:07:15.839Z,15.07
2023-03-21T17:09:46.985Z,8.80
2023-03-21T17:12:15.951Z,5.23
2023-03-21T17:14:43.498Z,6.37
2023-03-21T17:17:14.300Z,5.77
2023-03-21T17:19:41.337Z,4.90
2023-03-21T17:22:08.384Z,9.13
2023-03-21T17:24:36.145Z,6.67
2023-03-21T17:27:04.058Z,5.47
2023-03-21T17:29:31.225Z,5.10
2023-03-21T17:31:57.940Z,4.30
2023-03-21T17:34:25.983Z,7.67
2023-03-21T17:36:52.678Z,8.40
2023-03-21T17:39:24.826Z,7.77
2023-03-21T17:41:52.185Z,8.87
2023-03-21T17:44:19.763Z,10.53
2023-03-21T17:46:46.818Z,10.80
2023-03-21T17:49:15.009Z,10.87
2023-03-21T17:51:41.923Z,7.83
2023-03-21T17:54:09.529Z,8.57
2023-03-21T17:56:37.658Z,5.40
2023-03-21T17:59:07.457Z,7.73
2023-03-21T18:01:35.462Z,7.30
2023-03-21T18:04:05.129Z,10.57
2023-03-21T18:06:34.277Z,7.20
2023-03-21T18:09:04.680Z,8.57
2023-03-21T18:11:31.609Z,12.03
2023-03-21T18:14:10.238Z,15.83
2023-03-21T18:16:42.146Z,8.90
2023-03-21T18:19:11.023Z,8.63
2023-03-21T18:21:40.684Z,8.60
2023-03-21T18:24:13.181Z,7.80
2023-03-21T18:26:41.049Z,7.83
2023-03-21T18:32:05.795Z,5.33
2023-03-21T18:34:33.846Z,5.83
2023-03-21T18:37:03.723Z,4.83
2023-03-21T18:39:31.549Z,4.60
2023-03-21T18:42:02.513Z,4.93
2023-03-21T18:44:31.147Z,7.23
2023-03-21T18:46:58.429Z,5.23
2023-03-21T18:50:05.998Z,6.07
2023-03-21T18:52:12.344Z,8.80
2023-03-21T18:54:39.239Z,6.53
2023-03-21T18:57:34.307Z,5.40
2023-03-21T18:59:53.709Z,6.87
2023-03-21T19:02:20.523Z,7.17
2023-03-21T19:04:47.376Z,6.03
2023-03-21T19:07:15.628Z,4.83
2023-03-21T19:10:05.299Z,8.60
2023-03-21T19:12:29.815Z,6.27
2023-03-21T19:14:56.837Z,7.43
2023-03-21T19:20:12.037Z,10.00
2023-03-21T19:22:38.623Z,7.17
2023-03-21T19:25:07.148Z,5.83
2023-03-21T19:27:34.965Z,7.03
2023-03-21T19:30:13.874Z,6.37
2023-03-21T19:32:41.504Z,8.70
2023-03-21T19:35:08.733Z,10.13
2023-03-21T19:37:36.521Z,10.37
2023-03-21T19:40:05.544Z,7.20
2023-03-21T19:42:32.627Z,6.47
2023-03-21T19:44:59.392Z,10.33
2023-03-21T19:47:27.422Z,11.10
2023-03-21T19:50:42.128Z,8.53
2023-03-21T19:52:41.951Z,7.00
2023-03-21T19:55:09.018Z,6.30
2023-03-21T19:57:36.535Z,6.13
2023-03-21T20:00:04.811Z,7.20
2023-03-21T20:02:36.605Z,7.23
2023-03-21T20:05:05.155Z,7.83
2023-03-21T20:07:33.029Z,8.83
2023-03-21T20:10:00.164Z,7.70
2023-03-21T20:12:27.680Z,10.20
2023-03-21T20:15:06.952Z,8.63
2023-03-21T20:17:39.968Z,10.57
2023-03-21T20:20:10.524Z,10.00
2023-03-21T20:23:05.148Z,9.03
2023-03-21T20:25:24.262Z,14.47
2023-03-21T20:28:09.257Z,10.70
2023-03-21T20:30:38.980Z,10.43
2023-03-21T20:33:05.686Z,10.03
2023-03-21T20:36:19.777Z,8.60
2023-03-21T20:38:20.667Z,9.80
2023-03-21T20:40:48.305Z,7.60
2023-03-21T20:44:06.505Z,8.77
2023-03-21T20:46:07.195Z,10.70
2023-03-21T20:48:34.620Z,9.20
2023-03-21T20:51:25.038Z,7.90
2023-03-21T20:53:49.050Z,7.73
2023-03-21T20:56:15.669Z,11.23
2023-03-21T20:59:01.929Z,8.60
2023-03-21T21:01:29.127Z,9.77
2023-03-21T21:03:57.582Z,6.57
2023-03-21T21:06:24.495Z,7.30
2023-03-21T21:08:51.210Z,7.70
2023-03-21T21:12:02.953Z,9.03
2023-03-21T21:14:05.489Z,5.57
2023-03-21T21:16:32.141Z,5.93
2023-03-21T21:19:03.818Z,7.53
2023-03-21T21:21:31.778Z,7.00
2023-03-21T21:23:58.542Z,7.47
2023-03-21T21:26:25.151Z,7.70
2023-03-21T21:28:53.297Z,7.43
2023-03-21T21:31:20.373Z,10.13
2023-03-21T21:33:50.159Z,7.63
2023-03-21T21:36:17.146Z,7.27
2023-03-21T21:38:43.792Z,4.87
2023-03-21T21:41:17.628Z,6.10
2023-03-21T21:43:44.231Z,8.47
2023-03-21T21:46:11.719Z,6.00
2023-03-21T21:48:40.531Z,5.70
2023-03-21T21:51:07.445Z,7.53
2023-03-21T21:53:34.073Z,7.83
2023-03-21T21:56:03.389Z,6.50
2023-03-21T21:58:38.837Z,7.90
2023-03-21T22:01:06.312Z,6.27
2023-03-21T22:03:42.204Z,5.23
2023-03-21T22:06:10.229Z,6.37
2023-03-21T22:08:37.386Z,7.43
2023-03-21T22:11:05.003Z,7.43
2023-03-21T22:13:32.047Z,5.97
2023-03-21T22:15:58.739Z,6.50
2023-03-21T22:18:25.495Z,5.10
2023-03-21T22:20:52.295Z,6.17
2023-03-21T22:23:19.535Z,5.70
2023-03-21T22:25:52.286Z,7.07
2023-03-21T22:28:22.383Z,6.00
2023-03-21T22:30:49.482Z,4.87
2023-03-21T22:33:16.312Z,3.70
2023-03-21T22:35:43.052Z,4.37
2023-03-21T22:38:09.887Z,7.20
2023-03-21T22:40:36.656Z,4.80
2023-03-21T22:43:03.568Z,7.43
2023-03-21T22:45:30.272Z,5.77
2023-03-21T22:47:58.193Z,7.20
2023-03-21T22:50:24.871Z,7.70
2023-03-21T22:52:51.490Z,9.33
2023-03-21T22:55:18.196Z,9.60
2023-03-21T22:57:45.070Z,6.97
2023-03-21T23:00:13.754Z,8.23
2023-03-21T23:02:41.631Z,7.63
2023-03-21T23:05:09.493Z,7.93
2023-03-21T23:07:36.421Z,9.80
2023-03-21T23:10:05.233Z,9.27
2023-03-21T23:12:32.399Z,9.93
2023-03-21T23:14:59.419Z,8.53
2023-03-21T23:17:26.916Z,8.57
2023-03-21T23:19:53.615Z,9.70
2023-03-21T23:22:20.435Z,9.53
2023-03-21T23:24:47.177Z,8.77
2023-03-21T23:27:14.411Z,8.30
2023-03-21T23:29:41.234Z,12.33
2023-03-21T23:32:07.861Z,9.57
2023-03-21T23:34:34.607Z,6.73
2023-03-21T23:37:01.412Z,10.70
2023-03-21T23:39:28.411Z,10.73
2023-03-21T23:41:55.122Z,7.20
2023-03-21T23:44:21.851Z,10.90
2023-03-21T23:46:48.477Z,10.60
2023-03-21T23:49:15.547Z,10.60
2023-03-21T23:51:42.228Z,12.20
2023-03-21T23:54:09.285Z,13.47
2023-03-21T23:56:36.583Z,9.20
2023-03-21T23:59:03.807Z,9.30
